createdAt,value
2024-05-09T00:01:56.064Z,92034.41
2024-05-09T00:04:31.606Z,92035.19
2024-05-09T00:07:07.120Z,92032.88
2024-05-09T00:09:45.214Z,92028.84
2024-05-09T00:12:20.776Z,92039.28
2024-05-09T00:14:56.352Z,92033.28
2024-05-09T00:17:32.028Z,92024.66
2024-05-09T00:20:14.415Z,92028.50
2024-05-09T00:22:55.749Z,92028.94
2024-05-09T00:25:33.790Z,92021.19
2024-05-09T00:28:09.508Z,92017.59
2024-05-09T00:30:44.873Z,92020.09
2024-05-09T00:33:20.861Z,92023.19
2024-05-09T00:35:56.824Z,92022.53
2024-05-09T00:38:32.298Z,92021.22
2024-05-09T00:41:10.516Z,92020.59
2024-05-09T00:43:45.942Z,92026.41
2024-05-09T00:46:21.572Z,92014.50
2024-05-09T00:48:57.248Z,92017.72
2024-05-09T00:51:32.813Z,92026.16
2024-05-09T00:54:08.586Z,92022.38
2024-05-09T00:56:47.045Z,92031.97
2024-05-09T00:59:22.881Z,92023.97
2024-05-09T01:01:58.414Z,92027.06
2024-05-09T01:04:33.900Z,92029.94
2024-05-09T01:07:09.577Z,92025.66
2024-05-09T01:09:44.933Z,92023.28
2024-05-09T01:12:24.745Z,92020.53
2024-05-09T01:15:00.218Z,92017.44
2024-05-09T01:17:36.035Z,92010.66
2024-05-09T01:20:19.861Z,92012.78
2024-05-09T01:23:00.339Z,92010.66
2024-05-09T01:25:38.821Z,92017.28
2024-05-09T01:28:15.123Z,92015.44
2024-05-09T01:30:50.532Z,92010.81
2024-05-09T01:33:26.181Z,92012.16
2024-05-09T01:36:01.853Z,92003.53
2024-05-09T01:38:37.425Z,92010.09
2024-05-09T01:41:15.572Z,92009.00
2024-05-09T01:43:51.105Z,92014.38
2024-05-09T01:46:26.548Z,92015.47
2024-05-09T01:49:01.994Z,92012.84
2024-05-09T01:51:37.380Z,92016.69
2024-05-09T01:54:12.742Z,92016.78
2024-05-09T01:56:50.761Z,92018.19
2024-05-09T01:59:26.213Z,92018.59
2024-05-09T02:02:02.183Z,92018.19
2024-05-09T02:04:37.855Z,92014.97
2024-05-09T02:07:13.246Z,92013.25
2024-05-09T02:09:48.600Z,92014.91
2024-05-09T02:12:26.691Z,92019.91
2024-05-09T02:15:02.116Z,92012.94
2024-05-09T02:17:37.806Z,91999.22
2024-05-09T02:20:22.477Z,92018.28
2024-05-09T02:23:04.265Z,92017.59
2024-05-09T02:25:40.482Z,92013.44
2024-05-09T02:28:18.495Z,92011.53
2024-05-09T02:30:53.866Z,92004.28
2024-05-09T02:33:29.339Z,92000.88
2024-05-09T02:36:05.866Z,91996.09
2024-05-09T02:38:39.134Z,91995.50
2024-05-09T02:41:14.599Z,91999.34
2024-05-09T02:43:50.002Z,91992.31
2024-05-09T02:46:25.406Z,91989.44
2024-05-09T02:48:58.274Z,91986.28
2024-05-09T02:51:33.691Z,91986.75
2024-05-09T02:54:07.789Z,91976.81
2024-05-09T02:56:43.124Z,91977.63
2024-05-09T02:59:18.710Z,91978.63
2024-05-09T03:01:54.251Z,91977.88
2024-05-09T03:04:27.125Z,91982.06
2024-05-09T03:07:02.480Z,91984.22
2024-05-09T03:09:35.233Z,91988.06
2024-05-09T03:12:10.927Z,91988.84
2024-05-09T03:14:49.722Z,91984.38
2024-05-09T03:17:26.092Z,91984.97
2024-05-09T03:19:59.171Z,91993.00
2024-05-09T03:22:34.555Z,91987.00
2024-05-09T03:25:07.711Z,91994.69
2024-05-09T03:27:43.074Z,91991.63
2024-05-09T03:30:29.312Z,92000.28
2024-05-09T03:33:14.047Z,91993.78
2024-05-09T03:35:48.861Z,91992.72
2024-05-09T03:38:24.815Z,91997.34
2024-05-09T03:41:00.493Z,91994.91
2024-05-09T03:43:35.926Z,91991.81
2024-05-09T03:46:13.895Z,91986.94
2024-05-09T03:48:46.692Z,91987.06
2024-05-09T03:51:22.771Z,91985.03
2024-05-09T03:53:55.541Z,91985.81
2024-05-09T03:56:31.052Z,91978.75
2024-05-09T03:59:04.013Z,91985.19
2024-05-09T04:01:42.339Z,91985.03
2024-05-09T04:04:15.280Z,91982.88
2024-05-09T04:06:51.324Z,91980.88
2024-05-09T04:09:24.102Z,91978.13
2024-05-09T04:11:59.585Z,91980.34
2024-05-09T04:14:32.557Z,91980.78
2024-05-09T04:17:10.848Z,91976.94
2024-05-09T04:19:43.646Z,91971.78
2024-05-09T04:22:19.161Z,91973.16
2024-05-09T04:24:52.953Z,91978.97
2024-05-09T04:27:28.313Z,91984.94
2024-05-09T04:30:01.048Z,91991.69
2024-05-09T04:32:39.638Z,91994.91
2024-05-09T04:35:12.798Z,92001.31
2024-05-09T04:37:48.212Z,91997.56
2024-05-09T04:40:28.523Z,92003.06
2024-05-09T04:43:09.491Z,92010.13
2024-05-09T04:45:42.217Z,92014.72
2024-05-09T04:48:20.515Z,92018.13
2024-05-09T04:50:53.308Z,92019.03
2024-05-09T04:53:28.764Z,92025.97
2024-05-09T04:56:02.116Z,92022.88
2024-05-09T04:58:37.568Z,92028.72
2024-05-09T05:01:10.401Z,92031.09
2024-05-09T05:03:48.681Z,92028.00
2024-05-09T05:06:21.549Z,92032.25
2024-05-09T05:08:56.917Z,92034.66
2024-05-09T05:11:29.863Z,92036.81
2024-05-09T05:14:05.388Z,92037.38
2024-05-09T05:16:41.397Z,92042.25
2024-05-09T05:19:17.730Z,92041.25
2024-05-09T05:21:53.199Z,92051.31
2024-05-09T05:24:26.000Z,92043.53
2024-05-09T05:27:01.872Z,92044.84
2024-05-09T05:29:34.741Z,92047.22
2024-05-09T05:32:10.545Z,92051.38
2024-05-09T05:34:46.821Z,92053.16
2024-05-09T05:37:22.167Z,92053.81
2024-05-09T05:39:54.956Z,92054.50
2024-05-09T05:42:30.367Z,92056.50
2024-05-09T05:45:04.566Z,92056.31
2024-05-09T05:47:41.262Z,92062.00
2024-05-09T05:50:24.707Z,92058.63
2024-05-09T05:53:09.604Z,92065.84
2024-05-09T05:55:43.018Z,92064.69
2024-05-09T05:58:20.285Z,92061.69
2024-05-09T06:00:53.783Z,92057.53
2024-05-09T06:03:29.546Z,92056.19
2024-05-09T06:06:05.503Z,92063.16
2024-05-09T06:08:41.076Z,92060.13
2024-05-09T06:11:14.070Z,92058.44
2024-05-09T06:13:49.579Z,92054.25
2024-05-09T06:16:22.384Z,92052.72
2024-05-09T06:18:57.890Z,92059.28
2024-05-09T06:21:33.449Z,92063.56
2024-05-09T06:24:10.059Z,92065.00
2024-05-09T06:26:43.125Z,92058.66
2024-05-09T06:29:18.686Z,92058.13
2024-05-09T06:31:51.583Z,92051.75
2024-05-09T06:34:27.290Z,92062.38
2024-05-09T06:37:02.880Z,92060.84
2024-05-09T06:39:38.434Z,92065.00
2024-05-09T06:42:11.168Z,92055.94
2024-05-09T06:44:46.521Z,92060.66
2024-05-09T06:47:19.369Z,92062.66
2024-05-09T06:49:54.866Z,92066.50
2024-05-09T06:52:30.224Z,92056.00
2024-05-09T06:55:05.622Z,92068.34
2024-05-09T06:57:40.568Z,92056.50
2024-05-09T07:00:26.796Z,92063.41
2024-05-09T07:03:07.730Z,92062.72
2024-05-09T07:05:43.422Z,92062.09
2024-05-09T07:08:19.386Z,92059.91
2024-05-09T07:10:55.045Z,92064.31
2024-05-09T07:13:28.570Z,92068.56
2024-05-09T07:16:03.894Z,92072.72
2024-05-09T07:18:37.026Z,92071.63
2024-05-09T07:21:12.900Z,92070.88
2024-05-09T07:23:48.798Z,92078.53
2024-05-09T07:26:24.357Z,92075.50
2024-05-09T07:28:57.157Z,92074.38
2024-05-09T07:31:32.569Z,92075.78
2024-05-09T07:34:05.344Z,92081.59
2024-05-09T07:36:40.751Z,92078.53
2024-05-09T07:39:18.749Z,92086.97
2024-05-09T07:41:51.538Z,92080.81
2024-05-09T07:44:26.984Z,92082.38
2024-05-09T07:53:29.886Z,92082.00
2024-05-09T07:55:14.185Z,92090.28
2024-05-09T07:57:47.045Z,92085.59
2024-05-09T08:00:29.686Z,92088.03
2024-05-09T08:03:04.870Z,92090.47
2024-05-09T08:05:40.463Z,92084.72
2024-05-09T08:08:13.242Z,92088.13
2024-05-09T08:10:51.486Z,92087.84
2024-05-09T08:13:24.426Z,92085.59
2024-05-09T08:15:59.927Z,92084.00
2024-05-09T08:18:34.222Z,92083.66
2024-05-09T08:21:09.927Z,92084.88
2024-05-09T08:23:42.758Z,92085.81
2024-05-09T08:26:21.770Z,92093.72
2024-05-09T08:28:54.580Z,92095.00
2024-05-09T08:31:30.154Z,92092.97
2024-05-09T08:34:03.284Z,92090.53
2024-05-09T08:36:40.894Z,92086.38
2024-05-09T08:39:13.731Z,92083.13
2024-05-09T08:41:54.167Z,92069.63
2024-05-09T08:44:27.270Z,92083.41
2024-05-09T08:47:02.821Z,92079.38
2024-05-09T08:49:39.902Z,92075.88
2024-05-09T08:52:16.264Z,92074.34
2024-05-09T08:54:49.408Z,92070.97
2024-05-09T08:57:29.692Z,92072.69
2024-05-09T09:00:09.975Z,92071.34
2024-05-09T09:02:49.930Z,92072.03
2024-05-09T09:05:28.593Z,92066.91
2024-05-09T09:08:09.534Z,92064.63
2024-05-09T09:10:43.442Z,92056.16
2024-05-09T09:13:21.595Z,92056.66
2024-05-09T09:15:58.485Z,92054.63
2024-05-09T09:18:34.669Z,92053.69
2024-05-09T09:21:10.309Z,92062.47
2024-05-09T09:23:46.248Z,92061.19
2024-05-09T09:26:19.048Z,92056.97
2024-05-09T09:29:03.367Z,92062.69
2024-05-09T09:31:39.577Z,92058.50
2024-05-09T09:34:12.525Z,92055.19
2024-05-09T09:36:50.900Z,92057.88
2024-05-09T09:39:28.379Z,92064.69
2024-05-09T09:42:05.396Z,92055.28
2024-05-09T09:44:42.413Z,92053.16
2024-05-09T09:47:21.332Z,92062.69
2024-05-09T09:49:55.661Z,92059.50
2024-05-09T09:52:31.426Z,92062.75
2024-05-09T09:55:05.602Z,92059.13
2024-05-09T09:57:42.921Z,92042.78
2024-05-09T10:00:26.889Z,92051.25
2024-05-09T10:03:06.066Z,92051.69
2024-05-09T10:05:42.173Z,92057.66
2024-05-09T10:08:22.140Z,92048.38
2024-05-09T10:10:55.687Z,92058.44
2024-05-09T10:13:36.431Z,92061.44
2024-05-09T10:16:12.419Z,92052.34
2024-05-09T10:18:48.080Z,92048.44
2024-05-09T10:21:21.428Z,92048.59
2024-05-09T10:24:00.686Z,92043.34
2024-05-09T10:26:34.367Z,92053.38
2024-05-09T10:29:16.222Z,92048.69
2024-05-09T10:31:51.737Z,92051.66
2024-05-09T10:34:27.243Z,92045.31
2024-05-09T10:37:04.186Z,92046.78
2024-05-09T10:39:41.363Z,92051.19
2024-05-09T10:42:14.243Z,92041.16
2024-05-09T10:44:50.059Z,92047.50
2024-05-09T10:47:26.231Z,92045.78
2024-05-09T10:50:01.907Z,92045.78
2024-05-09T10:52:34.901Z,92053.00
2024-05-09T10:55:10.347Z,92051.19
2024-05-09T10:57:43.401Z,92040.53
2024-05-09T11:00:27.399Z,92050.69
2024-05-09T11:03:11.527Z,92046.22
2024-05-09T11:05:47.492Z,92038.69
2024-05-09T11:08:23.578Z,92045.88
2024-05-09T11:10:56.744Z,92052.81
2024-05-09T11:13:32.808Z,92046.75
2024-05-09T11:16:15.833Z,92036.31
2024-05-09T11:19:00.744Z,92045.97
2024-05-09T11:21:34.014Z,92038.94
2024-05-09T11:24:11.529Z,92037.00
2024-05-09T11:26:44.597Z,92030.03
2024-05-09T11:29:20.081Z,92029.97
2024-05-09T11:31:52.856Z,92038.38
2024-05-09T11:34:30.950Z,92043.47
2024-05-09T11:37:04.273Z,92028.00
2024-05-09T11:39:39.893Z,92036.34
2024-05-09T11:42:12.670Z,92042.66
2024-05-09T11:44:48.369Z,92043.31
2024-05-09T11:47:22.771Z,92040.81
2024-05-09T11:50:00.952Z,92041.19
2024-05-09T11:52:33.960Z,92046.19
2024-05-09T11:55:09.879Z,92044.34
2024-05-09T11:57:42.902Z,92041.69
2024-05-09T12:00:28.910Z,92041.13
2024-05-09T12:03:07.198Z,92045.19
2024-05-09T12:05:45.563Z,92043.66
2024-05-09T12:08:18.660Z,92039.97
2024-05-09T12:10:54.255Z,92035.44
2024-05-09T12:13:27.160Z,92037.56
2024-05-09T12:16:02.650Z,92042.38
2024-05-09T12:18:35.672Z,92027.78
2024-05-09T12:21:17.022Z,92034.97
2024-05-09T12:23:49.758Z,92040.94
2024-05-09T12:26:25.589Z,92042.38
2024-05-09T12:28:58.326Z,92042.47
2024-05-09T12:31:33.705Z,92040.94
2024-05-09T12:34:06.598Z,92046.34
2024-05-09T12:36:45.072Z,92041.75
2024-05-09T12:39:17.824Z,92038.31
2024-05-09T12:41:53.155Z,92041.84
2024-05-09T12:44:25.895Z,92039.75
2024-05-09T12:47:02.026Z,92037.94
2024-05-09T12:49:35.106Z,92039.25
2024-05-09T12:52:13.275Z,92035.31
2024-05-09T12:54:46.042Z,92029.25
2024-05-09T12:57:21.795Z,92031.72
2024-05-09T12:59:57.270Z,92033.19
2024-05-09T13:02:30.146Z,92032.06
2024-05-09T13:05:05.750Z,92030.63
2024-05-09T13:07:41.456Z,92027.78
2024-05-09T13:10:25.514Z,92029.41
2024-05-09T13:13:04.632Z,92023.72
2024-05-09T13:15:40.408Z,92025.50
2024-05-09T13:18:13.440Z,92019.53
2024-05-09T13:20:48.971Z,92016.84
2024-05-09T13:23:24.364Z,92007.06
2024-05-09T13:25:59.733Z,92015.59
2024-05-09T13:28:33.647Z,92012.47
2024-05-09T13:31:09.161Z,92013.47
2024-05-09T13:33:42.314Z,92002.88
2024-05-09T13:36:17.869Z,92010.31
2024-05-09T13:38:53.346Z,92009.78
2024-05-09T13:41:28.696Z,92006.94
2024-05-09T13:44:01.417Z,92007.25
2024-05-09T13:46:37.216Z,92002.28
2024-05-09T13:49:12.500Z,92004.94
2024-05-09T13:51:48.318Z,92006.34
2024-05-09T13:54:23.909Z,92001.09
2024-05-09T13:57:01.125Z,92003.28
2024-05-09T13:59:33.975Z,92000.38
2024-05-09T14:02:09.476Z,92007.09
2024-05-09T14:04:42.452Z,92004.66
2024-05-09T14:07:17.970Z,92005.34
2024-05-09T14:09:53.617Z,91999.16
2024-05-09T14:12:28.988Z,92005.94
2024-05-09T14:15:01.987Z,92012.59
2024-05-09T14:17:37.765Z,92007.81
2024-05-09T14:20:14.091Z,92011.59
2024-05-09T14:22:51.804Z,92008.28
2024-05-09T14:25:28.359Z,92016.00
2024-05-09T14:28:04.178Z,92004.50
2024-05-09T14:30:38.437Z,92013.06
2024-05-09T14:33:16.362Z,92015.09
2024-05-09T14:35:49.622Z,92024.63
2024-05-09T14:38:25.193Z,92019.41
2024-05-09T14:41:00.692Z,92026.38
2024-05-09T14:43:36.256Z,92013.78
2024-05-09T14:46:09.199Z,92020.63
2024-05-09T14:48:45.114Z,92022.34
2024-05-09T14:51:18.013Z,92021.09
2024-05-09T14:53:53.407Z,92026.63
2024-05-09T14:56:29.070Z,92021.84
2024-05-09T14:59:04.667Z,92018.56
2024-05-09T15:01:37.502Z,92021.63
2024-05-09T15:04:12.993Z,92019.16
2024-05-09T15:06:48.218Z,92020.69
2024-05-09T15:09:23.627Z,92018.25
2024-05-09T15:11:59.033Z,92024.50
2024-05-09T15:14:34.417Z,92019.28
2024-05-09T15:17:07.254Z,92024.78
2024-05-09T15:19:42.823Z,92030.88
2024-05-09T15:22:16.535Z,92019.81
2024-05-09T15:24:53.894Z,92023.34
2024-05-09T15:27:29.406Z,92024.88
2024-05-09T15:30:08.510Z,92022.38
2024-05-09T15:32:43.782Z,92029.75
2024-05-09T15:35:19.182Z,92039.06
2024-05-09T15:37:52.159Z,92035.22
2024-05-09T15:40:36.155Z,92037.97
2024-05-09T15:43:15.221Z,92038.34
2024-05-09T15:45:50.967Z,92031.50
2024-05-09T15:48:23.934Z,92032.56
2024-05-09T15:50:59.463Z,92040.06
2024-05-09T15:53:32.326Z,92045.34
2024-05-09T15:56:10.910Z,92041.34
2024-05-09T15:58:46.447Z,92044.13
2024-05-09T16:01:21.831Z,92043.19
2024-05-09T16:03:54.839Z,92042.09
2024-05-09T16:06:30.573Z,92046.53
2024-05-09T16:09:03.539Z,92052.75
2024-05-09T16:11:39.026Z,92053.84
2024-05-09T16:14:16.146Z,92055.00
2024-05-09T16:16:53.022Z,92054.09
2024-05-09T16:19:26.415Z,92055.69
2024-05-09T16:22:02.530Z,92059.28
2024-05-09T16:24:35.305Z,92053.81
2024-05-09T16:27:10.763Z,92062.25
2024-05-09T16:29:46.591Z,92059.81
2024-05-09T16:32:22.106Z,92053.41
2024-05-09T16:34:54.889Z,92060.78
2024-05-09T16:37:30.369Z,92060.09
2024-05-09T16:40:09.909Z,92064.63
2024-05-09T16:42:48.031Z,92059.66
2024-05-09T16:45:25.997Z,92062.00
2024-05-09T16:48:00.172Z,92058.34
2024-05-09T16:50:36.702Z,92064.31
2024-05-09T16:53:09.711Z,92063.84
2024-05-09T16:55:45.074Z,92070.41
2024-05-09T16:58:18.146Z,92071.56
2024-05-09T17:00:56.347Z,92073.44
2024-05-09T17:03:29.259Z,92073.53
2024-05-09T17:06:05.796Z,92075.00
2024-05-09T17:08:40.401Z,92077.09
2024-05-09T17:11:15.980Z,92078.97
2024-05-09T17:13:51.442Z,92085.16
2024-05-09T17:16:30.444Z,92087.75
2024-05-09T17:19:03.437Z,92092.56
2024-05-09T17:21:38.993Z,92097.69
2024-05-09T17:24:11.781Z,92100.78
2024-05-09T17:26:47.419Z,92103.00
2024-05-09T17:29:21.677Z,92101.09
2024-05-09T17:31:59.803Z,92105.22
2024-05-09T17:34:32.733Z,92099.47
2024-05-09T17:37:08.270Z,92099.84
2024-05-09T17:39:41.221Z,92109.28
2024-05-09T17:42:16.577Z,92109.47
2024-05-09T17:44:49.330Z,92114.13
2024-05-09T17:47:27.419Z,92107.38
2024-05-09T17:50:00.314Z,92105.66
2024-05-09T17:52:35.896Z,92112.47
2024-05-09T17:55:08.629Z,92116.25
2024-05-09T17:57:44.123Z,92109.38
2024-05-09T18:00:24.749Z,92112.47
2024-05-09T18:03:14.035Z,92115.75
2024-05-09T18:05:50.076Z,92115.34
2024-05-09T18:08:23.292Z,92120.06
2024-05-09T18:10:58.765Z,92127.78
2024-05-09T18:13:31.655Z,92127.03
2024-05-09T18:16:07.541Z,92124.72
2024-05-09T18:18:43.177Z,92126.25
2024-05-09T18:21:18.661Z,92132.31
2024-05-09T18:23:53.983Z,92122.75
2024-05-09T18:26:30.245Z,92132.69
2024-05-09T18:29:03.598Z,92129.16
2024-05-09T18:31:39.179Z,92127.75
2024-05-09T18:34:14.778Z,92129.78
2024-05-09T18:36:50.306Z,92135.47
2024-05-09T18:39:23.157Z,92137.59
2024-05-09T18:42:00.703Z,92143.50
2024-05-09T18:44:33.630Z,92136.81
2024-05-09T18:47:10.443Z,92136.63
2024-05-09T18:49:46.210Z,92139.22
2024-05-09T18:52:21.681Z,92140.50
2024-05-09T18:54:54.645Z,92141.34
2024-05-09T18:57:30.272Z,92146.84
2024-05-09T19:00:05.469Z,92150.13
2024-05-09T19:02:41.367Z,92155.44
2024-05-09T19:05:17.053Z,92159.50
2024-05-09T19:07:52.528Z,92153.69
2024-05-09T19:10:28.884Z,92162.72
2024-05-09T19:13:12.200Z,92165.91
2024-05-09T19:15:46.911Z,92177.66
2024-05-09T19:18:22.457Z,92179.34
2024-05-09T19:20:58.904Z,92169.16
2024-05-09T19:23:38.251Z,92171.81
2024-05-09T19:26:13.864Z,92176.63
2024-05-09T19:28:49.220Z,92179.81
2024-05-09T19:31:22.754Z,92182.59
2024-05-09T19:33:58.334Z,92180.75
2024-05-09T19:36:33.875Z,92183.22
2024-05-09T19:39:09.309Z,92170.28
2024-05-09T19:41:42.071Z,92180.50
2024-05-09T19:44:17.601Z,92178.09
2024-05-09T19:46:50.399Z,92177.47
2024-05-09T19:49:26.041Z,92179.53
2024-05-09T19:52:02.000Z,92183.16
2024-05-09T19:54:37.423Z,92178.81
2024-05-09T19:57:10.262Z,92188.38
2024-05-09T19:59:46.001Z,92181.91
2024-05-09T20:02:19.428Z,92180.84
2024-05-09T20:04:55.108Z,92178.75
2024-05-09T20:07:32.622Z,92176.41
2024-05-09T20:10:16.595Z,92172.53
2024-05-09T20:12:56.187Z,92186.34
2024-05-09T20:15:31.837Z,92179.69
2024-05-09T20:18:06.718Z,92175.00
2024-05-09T20:20:44.673Z,92183.03
2024-05-09T20:23:21.216Z,92181.13
2024-05-09T20:25:56.590Z,92181.97
2024-05-09T20:28:29.835Z,92192.66
2024-05-09T20:31:06.326Z,92186.25
2024-05-09T20:33:39.449Z,92185.84
2024-05-09T20:36:14.938Z,92182.34
2024-05-09T20:38:50.319Z,92185.06
2024-05-09T20:41:25.674Z,92190.81
2024-05-09T20:44:01.780Z,92194.00
2024-05-09T20:46:37.151Z,92187.66
2024-05-09T20:49:10.272Z,92193.19
2024-05-09T20:51:45.737Z,92198.97
2024-05-09T20:54:21.220Z,92196.84
2024-05-09T20:56:56.584Z,92201.34
2024-05-09T20:59:29.577Z,92190.00
2024-05-09T21:02:05.033Z,92187.66
2024-05-09T21:04:38.080Z,92185.78
2024-05-09T21:07:13.624Z,92183.53
2024-05-09T21:09:49.174Z,92181.13
2024-05-09T21:12:24.629Z,92188.66
2024-05-09T21:15:00.021Z,92177.34
2024-05-09T21:17:33.395Z,92177.34
2024-05-09T21:20:16.868Z,92178.38
2024-05-09T21:22:52.870Z,92183.66
2024-05-09T21:25:30.918Z,92186.97
2024-05-09T21:28:04.568Z,92185.13
2024-05-09T21:30:42.662Z,92184.50
2024-05-09T21:33:16.454Z,92185.53
2024-05-09T21:35:51.981Z,92191.00
2024-05-09T21:38:24.759Z,92183.50
2024-05-09T21:41:02.912Z,92175.63
2024-05-09T21:43:35.732Z,92180.13
2024-05-09T21:46:11.233Z,92176.53
2024-05-09T21:48:44.312Z,92176.25
2024-05-09T21:51:19.773Z,92182.56
2024-05-09T21:53:52.531Z,92171.13
2024-05-09T21:56:30.652Z,92169.53
2024-05-09T21:59:03.539Z,92168.78
2024-05-09T22:01:40.076Z,92167.53
2024-05-09T22:04:13.121Z,92167.53
2024-05-09T22:06:48.627Z,92159.50
2024-05-09T22:09:21.592Z,92164.91
2024-05-09T22:11:59.698Z,92164.88
2024-05-09T22:14:32.927Z,92160.19
2024-05-09T22:17:08.368Z,92152.38
2024-05-09T22:19:45.271Z,92153.94
2024-05-09T22:22:20.850Z,92147.66
2024-05-09T22:24:55.455Z,92148.16
2024-05-09T22:27:33.612Z,92139.81
2024-05-09T22:30:11.757Z,92144.44
2024-05-09T22:32:50.103Z,92137.63
2024-05-09T22:35:22.962Z,92140.25
2024-05-09T22:37:58.313Z,92140.25
2024-05-09T22:40:41.687Z,92132.44
2024-05-09T22:43:25.528Z,92136.94
2024-05-09T22:45:58.521Z,92139.03
2024-05-09T22:48:34.235Z,92135.38
2024-05-09T22:51:07.109Z,92132.28
2024-05-09T22:53:42.442Z,92130.84
2024-05-09T22:56:15.414Z,92128.78
2024-05-09T22:58:53.386Z,92122.09
2024-05-09T23:01:27.029Z,92125.13
2024-05-09T23:04:02.734Z,92122.53
2024-05-09T23:06:35.675Z,92124.16
2024-05-09T23:09:12.231Z,92121.34
2024-05-09T23:11:45.936Z,92117.47
2024-05-09T23:14:23.975Z,92114.59
2024-05-09T23:16:56.750Z,92110.09
2024-05-09T23:19:32.331Z,92110.88
2024-05-09T23:22:05.221Z,92106.44
2024-05-09T23:24:41.781Z,92100.69
2024-05-09T23:27:14.882Z,92100.75
2024-05-09T23:29:53.415Z,92110.38
2024-05-09T23:32:26.190Z,92103.16
2024-05-09T23:35:01.929Z,92101.03
2024-05-09T23:37:34.840Z,92103.16
2024-05-09T23:40:18.119Z,92103.50
2024-05-09T23:42:51.527Z,92097.72
2024-05-09T23:45:29.546Z,92100.09
2024-05-09T23:48:02.824Z,92097.31
2024-05-09T23:50:40.089Z,92099.63
2024-05-09T23:53:14.430Z,92098.09
2024-05-09T23:55:49.990Z,92091.88
2024-05-09T23:58:22.832Z,92091.69
